Argyle, Michigan
Current Conditions -  °F | °C
As of 5:55 PM on Monday 24 Nov 2014 (Local Time) from KBAX Reporting Station
Unknown Precip Unknown Precip  
Wind Chill: 26°   Ceiling: 1800
Heat Index: 37°   Visibility: 7mi
Dew Point: 34°   Wind: 22mph
Humidity: 91%   Direction: 230°SW
Pressure: 29.34"   Gusts: 41mph
Location:  43.56°N, 82.94°W
Report Text: KBAX 242255Z AUTO 23019G36KT 7SM UP SCT013 OVC018 03/01 A2934 RMK AO2 T00260013
Loading
Personal Weather Stations






























Interactive Weather Map New forecast layout! Learn more

10-Day Weather Forecast

Advertisements
Track Severe Weather on mobile